Aérodrome :
LOGIN :

S'inscrire | Disclaimer

   EN    FR    IT 

 










Légende :    VFR   VFR Marginal   IFR   IFR Intensif   IFR Très Intensif
Visi : 
Plafond : 
>= 8 km
>= 3000ft
5 à 8 km
1000 à 3000 ft
1500m à 5 km
500 à 1000 ft
800 à 1500m
200 à 500 ft
< 800m
< 200 ft
Symboles :   Orages  Brouillard  Fortes neiges  Fortes précipitations  Vent > 20 kt
SIGMETs :   Divers  Orages  Givrage  Turbulence  Onde Orograph.  Cendres Volcan.






- Altitude de l'aérodrome : 124 ft
- Code IATA : AVN


LFMV - Avignon Caumont

DERNIER METAR :
  • 231800Z AUTO 36008KT 330V030 9999 FEW072 21/11 Q1016 TEMPO -TSRA SCT050CB

METARs EXPIRÉS :
  • 231730Z AUTO 35004KT 9999 FEW072 22/10 Q1016 TEMPO -TSRA SCT050CB
  • 231700Z AUTO 05003KT 360V090 9999 FEW074/// ///CB 22/09 Q1016 TEMPO -TSRA
  • 231630Z AUTO 06005KT 010V100 9999 ///TCU 22/09 Q1016 TEMPO -TSRA SCT050CB
  • 231600Z AUTO 02010KT 330V060 9999 -RA FEW029/// BKN058/// BKN110/// ///CB 20/12 Q1016 TEMPO -TSRA
  • 231530Z AUTO 02003KT 300V070 9999 SCT074/// BKN088/// BKN120/// ///CB 22/11 Q1015 TEMPO -TSRA
  • 231500Z AUTO 33004KT 280V010 9999 FEW078/// SCT092/// ///CB 23/10 Q1016 TEMPO -TSRA
  • 231430Z AUTO 31007KT 250V350 CAVOK 23/10 Q1016 TEMPO 2000 TSRA SCT040CB
  • 231400Z AUTO VRB04KT 9999 FEW062 23/10 Q1016 TEMPO 2000 TSRA SCT040CB
  • 231330Z AUTO 32006KT 280V360 9999 FEW056 23/10 Q1016 TEMPO 2000 TSRA SCT040CB

TAF TAF LFMV
Valide du 23 à 15h jusqu'au 24 à 15h UTC


231400Z 2315/2415 32005KT 9999 FEW060
PROB40
TEMPO 2315/2320 -TSRA SCT050CB
BECMG 2411/2413 22010KT
PROB30
TEMPO 2414/2415 SCT050CB
ATIS : +33 4 90 84 32 84



MET'MAP, la Météo Aéronautique d'un coup d'oeil ! - Copyright ORBIFLY Décembre 2007 - Disclaimer

ORBIFLY MET'MAP TEAM :

Programmation & Développement : Alexandra Zaïnal
Sur une idée originale de : Baudouin d'Aumeries
Soutien technique & logistique : Manuel Goepfert
Assistance : Marc-Olivier Méhu




SOURCES & CREDITS :

   NOAA